sensor_id;sensor_type;location;lat;lon;timestamp;P1;durP1;ratioP1;P2;durP2;ratioP2
48588;SDS011;34369;51.174;6.738;2024-01-06T00:01:55;45.17;;;42.33;;
48588;SDS011;34369;51.174;6.738;2024-01-06T00:04:29;47.47;;;44.40;;
48588;SDS011;34369;51.174;6.738;2024-01-06T00:07:01;46.93;;;43.93;;
48588;SDS011;34369;51.174;6.738;2024-01-06T00:09:34;45.97;;;43.00;;
48588;SDS011;34369;51.174;6.738;2024-01-06T00:12:07;45.63;;;42.63;;
48588;SDS011;34369;51.174;6.738;2024-01-06T00:14:40;46.27;;;43.37;;
48588;SDS011;34369;51.174;6.738;2024-01-06T00:17:15;47.20;;;44.20;;
48588;SDS011;34369;51.174;6.738;2024-01-06T00:19:48;46.13;;;43.27;;
48588;SDS011;34369;51.174;6.738;2024-01-06T00:22:21;48.13;;;45.13;;
48588;SDS011;34369;51.174;6.738;2024-01-06T00:24:54;46.97;;;43.97;;
48588;SDS011;34369;51.174;6.738;2024-01-06T00:27:26;49.13;;;45.83;;
48588;SDS011;34369;51.174;6.738;2024-01-06T00:29:59;48.10;;;45.00;;
48588;SDS011;34369;51.174;6.738;2024-01-06T00:32:31;48.57;;;45.27;;
48588;SDS011;34369;51.174;6.738;2024-01-06T00:35:03;47.20;;;44.10;;
48588;SDS011;34369;51.174;6.738;2024-01-06T00:37:37;48.50;;;45.40;;
48588;SDS011;34369;51.174;6.738;2024-01-06T00:40:12;48.80;;;45.37;;
48588;SDS011;34369;51.174;6.738;2024-01-06T00:42:45;47.93;;;44.83;;
48588;SDS011;34369;51.174;6.738;2024-01-06T00:45:18;47.40;;;44.30;;
48588;SDS011;34369;51.174;6.738;2024-01-06T00:47:52;47.40;;;44.40;;
48588;SDS011;34369;51.174;6.738;2024-01-06T00:50:24;47.83;;;44.73;;
48588;SDS011;34369;51.174;6.738;2024-01-06T00:52:56;48.13;;;44.97;;
48588;SDS011;34369;51.174;6.738;2024-01-06T00:55:30;47.27;;;44.23;;
48588;SDS011;34369;51.174;6.738;2024-01-06T00:58:02;48.30;;;45.23;;
48588;SDS011;34369;51.174;6.738;2024-01-06T01:00:34;47.37;;;44.40;;
48588;SDS011;34369;51.174;6.738;2024-01-06T01:03:06;47.93;;;44.83;;
48588;SDS011;34369;51.174;6.738;2024-01-06T01:05:39;47.80;;;44.70;;
48588;SDS011;34369;51.174;6.738;2024-01-06T01:08:11;47.47;;;44.30;;
48588;SDS011;34369;51.174;6.738;2024-01-06T01:10:44;47.67;;;44.57;;
48588;SDS011;34369;51.174;6.738;2024-01-06T01:13:17;47.90;;;44.73;;
48588;SDS011;34369;51.174;6.738;2024-01-06T01:15:49;48.03;;;44.73;;
48588;SDS011;34369;51.174;6.738;2024-01-06T01:18:22;48.33;;;45.23;;
48588;SDS011;34369;51.174;6.738;2024-01-06T01:20:54;47.93;;;44.83;;
48588;SDS011;34369;51.174;6.738;2024-01-06T01:23:26;48.30;;;45.20;;
48588;SDS011;34369;51.174;6.738;2024-01-06T01:26:00;46.43;;;43.50;;
48588;SDS011;34369;51.174;6.738;2024-01-06T01:28:32;50.10;;;46.70;;
48588;SDS011;34369;51.174;6.738;2024-01-06T01:31:04;48.63;;;45.37;;
48588;SDS011;34369;51.174;6.738;2024-01-06T01:33:36;49.40;;;46.27;;
48588;SDS011;34369;51.174;6.738;2024-01-06T01:36:08;48.70;;;45.60;;
48588;SDS011;34369;51.174;6.738;2024-01-06T01:38:40;47.63;;;44.60;;
48588;SDS011;34369;51.174;6.738;2024-01-06T01:41:14;48.40;;;45.20;;
48588;SDS011;34369;51.174;6.738;2024-01-06T01:43:46;48.43;;;45.27;;
48588;SDS011;34369;51.174;6.738;2024-01-06T01:46:20;46.60;;;43.50;;
48588;SDS011;34369;51.174;6.738;2024-01-06T01:48:52;48.33;;;45.03;;
48588;SDS011;34369;51.174;6.738;2024-01-06T01:51:26;48.40;;;45.10;;
48588;SDS011;34369;51.174;6.738;2024-01-06T01:54:01;47.35;;;44.38;;
48588;SDS011;34369;51.174;6.738;2024-01-06T01:56:36;48.67;;;45.37;;
48588;SDS011;34369;51.174;6.738;2024-01-06T01:59:12;48.07;;;44.77;;
48588;SDS011;34369;51.174;6.738;2024-01-06T02:01:49;48.30;;;45.10;;
48588;SDS011;34369;51.174;6.738;2024-01-06T02:04:21;48.13;;;45.00;;
48588;SDS011;34369;51.174;6.738;2024-01-06T02:06:54;49.60;;;46.40;;
48588;SDS011;34369;51.174;6.738;2024-01-06T02:09:26;48.73;;;45.63;;
48588;SDS011;34369;51.174;6.738;2024-01-06T02:12:01;47.33;;;44.27;;
48588;SDS011;34369;51.174;6.738;2024-01-06T02:14:34;49.00;;;45.90;;
48588;SDS011;34369;51.174;6.738;2024-01-06T02:17:06;48.60;;;45.40;;
48588;SDS011;34369;51.174;6.738;2024-01-06T02:19:38;48.33;;;45.03;;
48588;SDS011;34369;51.174;6.738;2024-01-06T02:22:12;50.10;;;46.83;;
48588;SDS011;34369;51.174;6.738;2024-01-06T02:24:45;48.67;;;45.37;;
48588;SDS011;34369;51.174;6.738;2024-01-06T02:27:17;47.30;;;44.17;;
48588;SDS011;34369;51.174;6.738;2024-01-06T02:29:50;48.90;;;45.63;;
48588;SDS011;34369;51.174;6.738;2024-01-06T02:32:22;48.80;;;45.60;;
48588;SDS011;34369;51.174;6.738;2024-01-06T02:34:55;48.33;;;45.13;;
48588;SDS011;34369;51.174;6.738;2024-01-06T02:37:28;49.17;;;45.87;;
48588;SDS011;34369;51.174;6.738;2024-01-06T02:40:00;50.67;;;47.20;;
48588;SDS011;34369;51.174;6.738;2024-01-06T02:42:33;50.87;;;47.47;;
48588;SDS011;34369;51.174;6.738;2024-01-06T02:45:06;50.83;;;47.23;;
48588;SDS011;34369;51.174;6.738;2024-01-06T02:47:41;50.83;;;47.43;;
48588;SDS011;34369;51.174;6.738;2024-01-06T02:50:15;51.27;;;47.77;;
48588;SDS011;34369;51.174;6.738;2024-01-06T02:52:48;51.17;;;47.67;;
48588;SDS011;34369;51.174;6.738;2024-01-06T02:55:22;51.17;;;47.67;;
48588;SDS011;34369;51.174;6.738;2024-01-06T02:57:54;48.67;;;45.47;;
48588;SDS011;34369;51.174;6.738;2024-01-06T03:00:26;50.73;;;47.23;;
48588;SDS011;34369;51.174;6.738;2024-01-06T03:02:58;51.93;;;48.43;;
48588;SDS011;34369;51.174;6.738;2024-01-06T03:05:30;52.67;;;49.00;;
48588;SDS011;34369;51.174;6.738;2024-01-06T03:08:04;51.90;;;48.33;;
48588;SDS011;34369;51.174;6.738;2024-01-06T03:10:38;52.73;;;49.13;;
48588;SDS011;34369;51.174;6.738;2024-01-06T03:13:10;52.17;;;48.60;;
48588;SDS011;34369;51.174;6.738;2024-01-06T03:15:43;52.83;;;49.13;;
48588;SDS011;34369;51.174;6.738;2024-01-06T03:18:15;52.57;;;48.87;;
48588;SDS011;34369;51.174;6.738;2024-01-06T03:20:48;52.67;;;48.97;;
48588;SDS011;34369;51.174;6.738;2024-01-06T03:23:21;54.10;;;50.10;;
48588;SDS011;34369;51.174;6.738;2024-01-06T03:25:54;55.80;;;51.80;;
48588;SDS011;34369;51.174;6.738;2024-01-06T03:28:26;53.67;;;49.97;;
48588;SDS011;34369;51.174;6.738;2024-01-06T03:30:59;55.57;;;51.33;;
48588;SDS011;34369;51.174;6.738;2024-01-06T03:33:31;55.27;;;51.27;;
48588;SDS011;34369;51.174;6.738;2024-01-06T03:36:06;53.60;;;49.73;;
48588;SDS011;34369;51.174;6.738;2024-01-06T03:38:41;53.57;;;49.67;;
48588;SDS011;34369;51.174;6.738;2024-01-06T03:41:14;53.03;;;49.23;;
48588;SDS011;34369;51.174;6.738;2024-01-06T03:43:47;54.90;;;50.97;;
48588;SDS011;34369;51.174;6.738;2024-01-06T03:46:21;53.20;;;49.47;;
48588;SDS011;34369;51.174;6.738;2024-01-06T03:48:54;54.47;;;50.57;;
48588;SDS011;34369;51.174;6.738;2024-01-06T03:51:26;55.90;;;51.80;;
48588;SDS011;34369;51.174;6.738;2024-01-06T03:54:07;52.30;;;48.60;;
48588;SDS011;34369;51.174;6.738;2024-01-06T03:56:40;54.87;;;50.93;;
48588;SDS011;34369;51.174;6.738;2024-01-06T03:59:13;52.17;;;48.37;;
48588;SDS011;34369;51.174;6.738;2024-01-06T04:01:45;54.73;;;50.83;;
48588;SDS011;34369;51.174;6.738;2024-01-06T04:04:17;54.90;;;50.97;;
48588;SDS011;34369;51.174;6.738;2024-01-06T04:06:51;55.30;;;51.30;;
48588;SDS011;34369;51.174;6.738;2024-01-06T04:09:25;55.10;;;51.30;;
48588;SDS011;34369;51.174;6.738;2024-01-06T04:11:58;51.53;;;47.93;;
48588;SDS011;34369;51.174;6.738;2024-01-06T04:14:30;52.77;;;49.17;;
48588;SDS011;34369;51.174;6.738;2024-01-06T04:17:03;49.47;;;45.97;;
48588;SDS011;34369;51.174;6.738;2024-01-06T04:19:35;51.17;;;47.67;;
48588;SDS011;34369;51.174;6.738;2024-01-06T04:22:07;51.83;;;48.23;;
48588;SDS011;34369;51.174;6.738;2024-01-06T04:24:41;50.53;;;46.90;;
48588;SDS011;34369;51.174;6.738;2024-01-06T04:27:14;50.77;;;47.17;;
48588;SDS011;34369;51.174;6.738;2024-01-06T04:29:46;51.03;;;47.70;;
48588;SDS011;34369;51.174;6.738;2024-01-06T04:32:18;50.43;;;47.03;;
48588;SDS011;34369;51.174;6.738;2024-01-06T04:34:50;48.60;;;45.40;;
48588;SDS011;34369;51.174;6.738;2024-01-06T04:37:22;49.33;;;46.03;;
48588;SDS011;34369;51.174;6.738;2024-01-06T04:39:56;49.17;;;45.87;;
48588;SDS011;34369;51.174;6.738;2024-01-06T04:42:29;51.53;;;47.63;;
48588;SDS011;34369;51.174;6.738;2024-01-06T04:45:01;49.10;;;45.60;;
48588;SDS011;34369;51.174;6.738;2024-01-06T04:47:34;52.03;;;48.53;;
48588;SDS011;34369;51.174;6.738;2024-01-06T04:50:08;49.17;;;45.87;;
48588;SDS011;34369;51.174;6.738;2024-01-06T04:52:41;49.47;;;46.17;;
48588;SDS011;34369;51.174;6.738;2024-01-06T04:55:17;50.90;;;47.50;;
48588;SDS011;34369;51.174;6.738;2024-01-06T04:57:49;50.43;;;47.07;;
48588;SDS011;34369;51.174;6.738;2024-01-06T05:00:21;48.77;;;45.47;;
48588;SDS011;34369;51.174;6.738;2024-01-06T05:02:54;48.87;;;45.67;;
48588;SDS011;34369;51.174;6.738;2024-01-06T05:05:26;50.00;;;46.67;;
48588;SDS011;34369;51.174;6.738;2024-01-06T05:07:58;50.20;;;46.87;;
48588;SDS011;34369;51.174;6.738;2024-01-06T05:10:32;47.17;;;44.07;;
48588;SDS011;34369;51.174;6.738;2024-01-06T05:13:04;49.43;;;46.17;;
48588;SDS011;34369;51.174;6.738;2024-01-06T05:15:37;49.70;;;46.40;;
48588;SDS011;34369;51.174;6.738;2024-01-06T05:18:10;50.87;;;47.47;;
48588;SDS011;34369;51.174;6.738;2024-01-06T05:20:43;47.70;;;44.60;;
48588;SDS011;34369;51.174;6.738;2024-01-06T05:23:15;48.50;;;45.27;;
48588;SDS011;34369;51.174;6.738;2024-01-06T05:25:49;49.73;;;46.40;;
48588;SDS011;34369;51.174;6.738;2024-01-06T05:28:21;49.43;;;46.23;;
48588;SDS011;34369;51.174;6.738;2024-01-06T05:30:53;47.10;;;44.00;;
48588;SDS011;34369;51.174;6.738;2024-01-06T05:33:25;48.00;;;44.80;;
48588;SDS011;34369;51.174;6.738;2024-01-06T05:35:58;49.87;;;46.57;;
48588;SDS011;34369;51.174;6.738;2024-01-06T05:38:30;47.93;;;44.43;;
48588;SDS011;34369;51.174;6.738;2024-01-06T05:41:03;49.13;;;45.83;;
48588;SDS011;34369;51.174;6.738;2024-01-06T05:43:37;47.80;;;44.60;;
48588;SDS011;34369;51.174;6.738;2024-01-06T05:46:10;50.03;;;46.73;;
48588;SDS011;34369;51.174;6.738;2024-01-06T05:48:43;49.97;;;46.57;;
48588;SDS011;34369;51.174;6.738;2024-01-06T05:51:15;49.87;;;46.63;;
48588;SDS011;34369;51.174;6.738;2024-01-06T05:53:51;49.33;;;45.93;;
48588;SDS011;34369;51.174;6.738;2024-01-06T05:56:24;48.77;;;45.53;;
48588;SDS011;34369;51.174;6.738;2024-01-06T05:58:57;49.80;;;46.50;;
48588;SDS011;34369;51.174;6.738;2024-01-06T06:01:29;48.13;;;44.73;;
48588;SDS011;34369;51.174;6.738;2024-01-06T06:04:01;51.23;;;47.73;;
48588;SDS011;34369;51.174;6.738;2024-01-06T06:06:34;49.77;;;46.50;;
48588;SDS011;34369;51.174;6.738;2024-01-06T06:09:07;48.77;;;45.57;;
48588;SDS011;34369;51.174;6.738;2024-01-06T06:11:42;48.97;;;45.67;;
48588;SDS011;34369;51.174;6.738;2024-01-06T06:14:15;52.57;;;49.07;;
48588;SDS011;34369;51.174;6.738;2024-01-06T06:16:47;50.37;;;47.07;;
48588;SDS011;34369;51.174;6.738;2024-01-06T06:19:19;49.47;;;46.20;;
48588;SDS011;34369;51.174;6.738;2024-01-06T06:21:51;49.83;;;46.43;;
48588;SDS011;34369;51.174;6.738;2024-01-06T06:24:25;49.70;;;46.40;;
48588;SDS011;34369;51.174;6.738;2024-01-06T06:26:59;48.67;;;45.40;;
48588;SDS011;34369;51.174;6.738;2024-01-06T06:29:31;48.07;;;44.87;;
48588;SDS011;34369;51.174;6.738;2024-01-06T06:32:05;49.30;;;46.10;;
48588;SDS011;34369;51.174;6.738;2024-01-06T06:34:38;47.97;;;44.77;;
48588;SDS011;34369;51.174;6.738;2024-01-06T06:37:10;49.30;;;45.70;;
48588;SDS011;34369;51.174;6.738;2024-01-06T06:39:42;50.97;;;47.57;;
48588;SDS011;34369;51.174;6.738;2024-01-06T06:42:17;50.53;;;47.13;;
48588;SDS011;34369;51.174;6.738;2024-01-06T06:44:48;50.17;;;46.80;;
48588;SDS011;34369;51.174;6.738;2024-01-06T06:47:23;50.87;;;47.47;;
48588;SDS011;34369;51.174;6.738;2024-01-06T06:49:55;50.30;;;47.00;;
48588;SDS011;34369;51.174;6.738;2024-01-06T06:52:27;49.47;;;46.20;;
48588;SDS011;34369;51.174;6.738;2024-01-06T06:55:00;51.80;;;48.53;;
48588;SDS011;34369;51.174;6.738;2024-01-06T06:57:33;51.00;;;47.60;;
48588;SDS011;34369;51.174;6.738;2024-01-06T07:00:06;48.97;;;45.77;;
48588;SDS011;34369;51.174;6.738;2024-01-06T07:02:40;50.27;;;47.00;;
48588;SDS011;34369;51.174;6.738;2024-01-06T07:05:12;49.17;;;45.87;;
48588;SDS011;34369;51.174;6.738;2024-01-06T07:07:44;47.67;;;44.57;;
48588;SDS011;34369;51.174;6.738;2024-01-06T07:10:18;49.17;;;45.87;;
48588;SDS011;34369;51.174;6.738;2024-01-06T07:12:51;47.90;;;44.63;;
48588;SDS011;34369;51.174;6.738;2024-01-06T07:15:23;49.93;;;46.53;;
48588;SDS011;34369;51.174;6.738;2024-01-06T07:17:56;51.30;;;47.83;;
48588;SDS011;34369;51.174;6.738;2024-01-06T07:20:28;50.37;;;47.03;;
48588;SDS011;34369;51.174;6.738;2024-01-06T07:23:02;50.77;;;47.37;;
48588;SDS011;34369;51.174;6.738;2024-01-06T07:25:34;50.37;;;46.97;;
48588;SDS011;34369;51.174;6.738;2024-01-06T07:28:09;48.93;;;45.73;;
48588;SDS011;34369;51.174;6.738;2024-01-06T07:30:41;50.73;;;47.43;;
48588;SDS011;34369;51.174;6.738;2024-01-06T07:33:15;50.47;;;47.20;;
48588;SDS011;34369;51.174;6.738;2024-01-06T07:35:47;50.77;;;47.37;;
48588;SDS011;34369;51.174;6.738;2024-01-06T07:38:19;49.83;;;46.53;;
48588;SDS011;34369;51.174;6.738;2024-01-06T07:40:52;49.93;;;46.63;;
48588;SDS011;34369;51.174;6.738;2024-01-06T07:43:28;51.20;;;47.80;;
48588;SDS011;34369;51.174;6.738;2024-01-06T07:46:00;50.33;;;47.00;;
48588;SDS011;34369;51.174;6.738;2024-01-06T07:48:33;50.27;;;46.97;;
48588;SDS011;34369;51.174;6.738;2024-01-06T07:51:06;50.60;;;47.23;;
48588;SDS011;34369;51.174;6.738;2024-01-06T07:53:40;49.47;;;46.07;;
48588;SDS011;34369;51.174;6.738;2024-01-06T07:56:12;51.27;;;47.97;;
48588;SDS011;34369;51.174;6.738;2024-01-06T07:58:46;50.77;;;47.30;;
48588;SDS011;34369;51.174;6.738;2024-01-06T08:01:18;51.70;;;48.30;;
48588;SDS011;34369;51.174;6.738;2024-01-06T08:03:50;49.77;;;46.47;;
48588;SDS011;34369;51.174;6.738;2024-01-06T08:06:23;49.33;;;46.03;;
48588;SDS011;34369;51.174;6.738;2024-01-06T08:08:56;49.93;;;46.63;;
48588;SDS011;34369;51.174;6.738;2024-01-06T08:11:29;50.83;;;47.47;;
48588;SDS011;34369;51.174;6.738;2024-01-06T08:14:03;50.90;;;47.50;;
48588;SDS011;34369;51.174;6.738;2024-01-06T08:16:35;52.93;;;49.23;;
48588;SDS011;34369;51.174;6.738;2024-01-06T08:19:08;48.97;;;45.77;;
48588;SDS011;34369;51.174;6.738;2024-01-06T08:21:40;49.83;;;46.43;;
48588;SDS011;34369;51.174;6.738;2024-01-06T08:24:13;52.40;;;48.90;;
48588;SDS011;34369;51.174;6.738;2024-01-06T08:26:46;49.57;;;46.20;;
48588;SDS011;34369;51.174;6.738;2024-01-06T08:29:20;50.17;;;46.80;;
48588;SDS011;34369;51.174;6.738;2024-01-06T08:31:53;49.00;;;45.60;;
48588;SDS011;34369;51.174;6.738;2024-01-06T08:34:25;49.13;;;45.80;;
48588;SDS011;34369;51.174;6.738;2024-01-06T08:36:57;50.23;;;46.50;;
48588;SDS011;34369;51.174;6.738;2024-01-06T08:39:30;50.27;;;46.87;;
48588;SDS011;34369;51.174;6.738;2024-01-06T08:42:04;49.93;;;46.63;;
48588;SDS011;34369;51.174;6.738;2024-01-06T08:44:38;49.80;;;46.43;;
48588;SDS011;34369;51.174;6.738;2024-01-06T08:47:11;50.27;;;46.93;;
48588;SDS011;34369;51.174;6.738;2024-01-06T08:49:44;51.03;;;47.53;;
48588;SDS011;34369;51.174;6.738;2024-01-06T08:52:16;50.63;;;47.23;;
48588;SDS011;34369;51.174;6.738;2024-01-06T08:54:49;50.67;;;47.27;;
48588;SDS011;34369;51.174;6.738;2024-01-06T08:57:21;49.53;;;46.20;;
48588;SDS011;34369;51.174;6.738;2024-01-06T08:59:54;48.83;;;45.37;;
48588;SDS011;34369;51.174;6.738;2024-01-06T09:02:30;51.63;;;48.10;;
48588;SDS011;34369;51.174;6.738;2024-01-06T09:05:02;49.77;;;46.43;;
48588;SDS011;34369;51.174;6.738;2024-01-06T09:07:35;50.37;;;46.77;;
48588;SDS011;34369;51.174;6.738;2024-01-06T09:10:09;50.17;;;46.83;;
48588;SDS011;34369;51.174;6.738;2024-01-06T09:12:42;50.13;;;46.63;;
48588;SDS011;34369;51.174;6.738;2024-01-06T09:15:15;49.47;;;46.27;;
48588;SDS011;34369;51.174;6.738;2024-01-06T09:17:48;49.13;;;45.73;;
48588;SDS011;34369;51.174;6.738;2024-01-06T09:20:20;48.57;;;45.23;;
48588;SDS011;34369;51.174;6.738;2024-01-06T09:22:53;49.33;;;46.13;;
48588;SDS011;34369;51.174;6.738;2024-01-06T09:25:27;50.83;;;47.53;;
48588;SDS011;34369;51.174;6.738;2024-01-06T09:28:00;48.33;;;45.03;;
48588;SDS011;34369;51.174;6.738;2024-01-06T09:30:34;51.00;;;47.60;;
48588;SDS011;34369;51.174;6.738;2024-01-06T09:33:07;48.47;;;45.27;;
48588;SDS011;34369;51.174;6.738;2024-01-06T09:35:39;49.60;;;46.30;;
48588;SDS011;34369;51.174;6.738;2024-01-06T09:38:12;50.60;;;47.20;;
48588;SDS011;34369;51.174;6.738;2024-01-06T09:40:44;49.60;;;46.30;;
48588;SDS011;34369;51.174;6.738;2024-01-06T09:43:18;51.03;;;47.53;;
48588;SDS011;34369;51.174;6.738;2024-01-06T09:45:54;50.87;;;47.40;;
48588;SDS011;34369;51.174;6.738;2024-01-06T09:48:39;49.87;;;46.47;;
48588;SDS011;34369;51.174;6.738;2024-01-06T09:51:12;50.40;;;46.90;;
48588;SDS011;34369;51.174;6.738;2024-01-06T09:53:47;50.30;;;46.90;;
48588;SDS011;34369;51.174;6.738;2024-01-06T09:56:24;52.20;;;48.60;;
48588;SDS011;34369;51.174;6.738;2024-01-06T09:58:58;50.83;;;47.33;;
48588;SDS011;34369;51.174;6.738;2024-01-06T10:01:32;51.10;;;47.77;;
48588;SDS011;34369;51.174;6.738;2024-01-06T10:04:04;52.43;;;48.90;;
48588;SDS011;34369;51.174;6.738;2024-01-06T10:06:36;49.50;;;46.20;;
48588;SDS011;34369;51.174;6.738;2024-01-06T10:09:09;50.60;;;47.17;;
48588;SDS011;34369;51.174;6.738;2024-01-06T10:11:42;49.73;;;46.37;;
48588;SDS011;34369;51.174;6.738;2024-01-06T10:14:14;51.37;;;47.83;;
48588;SDS011;34369;51.174;6.738;2024-01-06T10:16:51;51.80;;;48.30;;
48588;SDS011;34369;51.174;6.738;2024-01-06T10:19:24;50.67;;;47.27;;
48588;SDS011;34369;51.174;6.738;2024-01-06T10:21:56;51.23;;;47.53;;
48588;SDS011;34369;51.174;6.738;2024-01-06T10:24:32;52.20;;;48.50;;
48588;SDS011;34369;51.174;6.738;2024-01-06T10:27:08;52.23;;;48.63;;
48588;SDS011;34369;51.174;6.738;2024-01-06T10:29:42;52.37;;;48.77;;
48588;SDS011;34369;51.174;6.738;2024-01-06T10:32:17;53.07;;;49.30;;
48588;SDS011;34369;51.174;6.738;2024-01-06T10:34:49;52.07;;;48.47;;
48588;SDS011;34369;51.174;6.738;2024-01-06T10:37:21;52.70;;;49.07;;
48588;SDS011;34369;51.174;6.738;2024-01-06T10:40:06;54.00;;;50.00;;
48588;SDS011;34369;51.174;6.738;2024-01-06T10:42:43;56.17;;;52.27;;
48588;SDS011;34369;51.174;6.738;2024-01-06T10:45:16;54.37;;;50.47;;
48588;SDS011;34369;51.174;6.738;2024-01-06T10:47:50;52.97;;;49.20;;
48588;SDS011;34369;51.174;6.738;2024-01-06T10:50:23;53.03;;;49.23;;
48588;SDS011;34369;51.174;6.738;2024-01-06T10:52:55;51.83;;;48.33;;
48588;SDS011;34369;51.174;6.738;2024-01-06T10:55:29;52.17;;;48.47;;
48588;SDS011;34369;51.174;6.738;2024-01-06T10:58:03;53.13;;;49.27;;
48588;SDS011;34369;51.174;6.738;2024-01-06T11:00:37;52.87;;;49.17;;
48588;SDS011;34369;51.174;6.738;2024-01-06T11:03:12;52.87;;;49.10;;
48588;SDS011;34369;51.174;6.738;2024-01-06T11:05:46;52.70;;;49.00;;
48588;SDS011;34369;51.174;6.738;2024-01-06T11:08:19;50.20;;;46.70;;
48588;SDS011;34369;51.174;6.738;2024-01-06T11:10:53;55.13;;;51.23;;
48588;SDS011;34369;51.174;6.738;2024-01-06T11:13:27;49.33;;;46.03;;
48588;SDS011;34369;51.174;6.738;2024-01-06T11:15:59;53.13;;;49.33;;
48588;SDS011;34369;51.174;6.738;2024-01-06T11:18:37;52.75;;;48.97;;
48588;SDS011;34369;51.174;6.738;2024-01-06T11:21:17;51.90;;;48.60;;
48588;SDS011;34369;51.174;6.738;2024-01-06T11:24:10;53.23;;;49.43;;
48588;SDS011;34369;51.174;6.738;2024-01-06T11:26:52;53.03;;;49.43;;
48588;SDS011;34369;51.174;6.738;2024-01-06T11:29:28;51.38;;;47.95;;
48588;SDS011;34369;51.174;6.738;2024-01-06T11:32:19;52.70;;;48.90;;
48588;SDS011;34369;51.174;6.738;2024-01-06T11:35:05;52.87;;;49.07;;
48588;SDS011;34369;51.174;6.738;2024-01-06T11:37:50;52.27;;;48.60;;
48588;SDS011;34369;51.174;6.738;2024-01-06T11:40:30;50.00;;;46.45;;
48588;SDS011;34369;51.174;6.738;2024-01-06T11:43:05;52.67;;;48.90;;
48588;SDS011;34369;51.174;6.738;2024-01-06T11:45:40;55.73;;;51.83;;
48588;SDS011;34369;51.174;6.738;2024-01-06T11:48:13;52.30;;;48.63;;
48588;SDS011;34369;51.174;6.738;2024-01-06T11:50:48;55.40;;;51.60;;
48588;SDS011;34369;51.174;6.738;2024-01-06T11:53:21;54.53;;;50.63;;
48588;SDS011;34369;51.174;6.738;2024-01-06T11:55:53;54.97;;;50.87;;
48588;SDS011;34369;51.174;6.738;2024-01-06T11:58:26;56.30;;;52.23;;
48588;SDS011;34369;51.174;6.738;2024-01-06T12:00:59;56.07;;;51.97;;
48588;SDS011;34369;51.174;6.738;2024-01-06T12:03:32;55.40;;;51.20;;
48588;SDS011;34369;51.174;6.738;2024-01-06T12:06:06;55.73;;;51.63;;
48588;SDS011;34369;51.174;6.738;2024-01-06T12:08:40;53.90;;;50.13;;
48588;SDS011;34369;51.174;6.738;2024-01-06T12:11:12;54.03;;;49.97;;
48588;SDS011;34369;51.174;6.738;2024-01-06T12:13:45;54.57;;;50.90;;
48588;SDS011;34369;51.174;6.738;2024-01-06T12:16:17;53.17;;;49.47;;
48588;SDS011;34369;51.174;6.738;2024-01-06T12:18:49;55.50;;;51.43;;
48588;SDS011;34369;51.174;6.738;2024-01-06T12:21:23;56.87;;;52.90;;
48588;SDS011;34369;51.174;6.738;2024-01-06T12:24:11;56.10;;;52.00;;
48588;SDS011;34369;51.174;6.738;2024-01-06T12:26:47;55.57;;;51.47;;
48588;SDS011;34369;51.174;6.738;2024-01-06T12:29:22;52.83;;;49.00;;
48588;SDS011;34369;51.174;6.738;2024-01-06T12:31:55;55.63;;;51.63;;
48588;SDS011;34369;51.174;6.738;2024-01-06T12:34:31;53.28;;;49.45;;
48588;SDS011;34369;51.174;6.738;2024-01-06T12:37:07;55.53;;;51.43;;
48588;SDS011;34369;51.174;6.738;2024-01-06T12:39:39;52.10;;;48.47;;
48588;SDS011;34369;51.174;6.738;2024-01-06T12:42:15;52.33;;;48.80;;
48588;SDS011;34369;51.174;6.738;2024-01-06T12:44:50;56.90;;;52.83;;
48588;SDS011;34369;51.174;6.738;2024-01-06T12:47:22;52.37;;;48.67;;
48588;SDS011;34369;51.174;6.738;2024-01-06T12:49:54;56.90;;;52.83;;
48588;SDS011;34369;51.174;6.738;2024-01-06T12:52:27;57.37;;;53.10;;
48588;SDS011;34369;51.174;6.738;2024-01-06T12:55:01;55.10;;;51.07;;
48588;SDS011;34369;51.174;6.738;2024-01-06T12:57:34;59.63;;;55.07;;
48588;SDS011;34369;51.174;6.738;2024-01-06T13:00:06;60.70;;;56.03;;
48588;SDS011;34369;51.174;6.738;2024-01-06T13:02:42;57.23;;;52.93;;
48588;SDS011;34369;51.174;6.738;2024-01-06T13:05:14;59.13;;;54.83;;
48588;SDS011;34369;51.174;6.738;2024-01-06T13:07:48;52.40;;;48.70;;
48588;SDS011;34369;51.174;6.738;2024-01-06T13:10:21;53.57;;;49.73;;
48588;SDS011;34369;51.174;6.738;2024-01-06T13:12:54;57.50;;;53.13;;
48588;SDS011;34369;51.174;6.738;2024-01-06T13:15:30;56.97;;;52.77;;
48588;SDS011;34369;51.174;6.738;2024-01-06T13:18:03;58.30;;;54.00;;
48588;SDS011;34369;51.174;6.738;2024-01-06T13:20:36;57.03;;;52.83;;
48588;SDS011;34369;51.174;6.738;2024-01-06T13:23:12;58.67;;;54.37;;
48588;SDS011;34369;51.174;6.738;2024-01-06T13:25:45;56.27;;;52.37;;
48588;SDS011;34369;51.174;6.738;2024-01-06T13:28:19;56.83;;;52.27;;
48588;SDS011;34369;51.174;6.738;2024-01-06T13:30:54;57.63;;;53.43;;
48588;SDS011;34369;51.174;6.738;2024-01-06T13:33:28;56.57;;;52.37;;
48588;SDS011;34369;51.174;6.738;2024-01-06T13:36:00;56.00;;;51.53;;
48588;SDS011;34369;51.174;6.738;2024-01-06T13:38:35;57.20;;;53.00;;
48588;SDS011;34369;51.174;6.738;2024-01-06T13:41:08;56.60;;;52.60;;
48588;SDS011;34369;51.174;6.738;2024-01-06T13:43:40;53.37;;;49.77;;
48588;SDS011;34369;51.174;6.738;2024-01-06T13:46:13;56.83;;;52.73;;
48588;SDS011;34369;51.174;6.738;2024-01-06T13:48:46;56.50;;;52.20;;
48588;SDS011;34369;51.174;6.738;2024-01-06T13:51:18;56.03;;;52.00;;
48588;SDS011;34369;51.174;6.738;2024-01-06T13:53:52;58.00;;;53.70;;
48588;SDS011;34369;51.174;6.738;2024-01-06T13:56:24;57.60;;;53.23;;
48588;SDS011;34369;51.174;6.738;2024-01-06T13:58:59;55.80;;;51.70;;
48588;SDS011;34369;51.174;6.738;2024-01-06T14:01:32;59.57;;;55.13;;
48588;SDS011;34369;51.174;6.738;2024-01-06T14:04:06;53.50;;;49.50;;
48588;SDS011;34369;51.174;6.738;2024-01-06T14:06:38;60.03;;;55.53;;
48588;SDS011;34369;51.174;6.738;2024-01-06T14:09:15;59.23;;;54.97;;
48588;SDS011;34369;51.174;6.738;2024-01-06T14:11:47;53.15;;;49.45;;
48588;SDS011;34369;51.174;6.738;2024-01-06T14:14:20;60.10;;;55.60;;
48588;SDS011;34369;51.174;6.738;2024-01-06T14:16:53;60.27;;;55.67;;
48588;SDS011;34369;51.174;6.738;2024-01-06T14:19:29;55.17;;;51.20;;
48588;SDS011;34369;51.174;6.738;2024-01-06T14:22:01;56.80;;;52.30;;
48588;SDS011;34369;51.174;6.738;2024-01-06T14:24:36;59.37;;;54.77;;
48588;SDS011;34369;51.174;6.738;2024-01-06T14:27:08;56.17;;;52.37;;
48588;SDS011;34369;51.174;6.738;2024-01-06T14:29:44;54.67;;;51.00;;
48588;SDS011;34369;51.174;6.738;2024-01-06T14:32:17;55.87;;;52.37;;
48588;SDS011;34369;51.174;6.738;2024-01-06T14:34:50;56.33;;;52.23;;
48588;SDS011;34369;51.174;6.738;2024-01-06T14:37:23;53.40;;;49.60;;
48588;SDS011;34369;51.174;6.738;2024-01-06T14:39:57;56.87;;;52.70;;
48588;SDS011;34369;51.174;6.738;2024-01-06T14:42:29;56.50;;;52.67;;
48588;SDS011;34369;51.174;6.738;2024-01-06T14:45:02;54.23;;;50.37;;
48588;SDS011;34369;51.174;6.738;2024-01-06T14:47:38;52.95;;;49.33;;
48588;SDS011;34369;51.174;6.738;2024-01-06T14:50:11;56.40;;;52.23;;
48588;SDS011;34369;51.174;6.738;2024-01-06T14:52:44;56.83;;;52.63;;
48588;SDS011;34369;51.174;6.738;2024-01-06T14:55:18;54.33;;;50.67;;
48588;SDS011;34369;51.174;6.738;2024-01-06T14:57:51;56.47;;;52.43;;